Goose Bay, Canada
Current Conditions -  °F | °C
As of 7:00 AM on Saturday 25 Oct 2014 (Local Time) from CYYR Reporting Station
Light Rain Light Rain  
Wind Chill: 27°   Ceiling: 1100
Heat Index: 36°   Visibility: 5mi
Dew Point: 30°   Wind: 14mph
Humidity: 81%   Direction: 50°NE
Pressure: 29.93"   Gusts: 21mph
Location:  53.31°N, 60.41°W
Report Text: CYYR 251000Z 05012G18KT 5SM -RA BR FEW008 BKN011 OVC022 02/M01 A2993 RMK SF1SC4SC3 /GREEN/ SLP138
Loading
Personal Weather Stations






























Interactive Weather Map
Tropical Storm Tracking
New forecast layout! Learn more

10-Day Weather Forecast

Advertisements
Track Severe Weather on mobile